EGBB - Birmingham Airport
Distance from station: E 5mi, 14km
Updated: 07/22/2018 10:50pm
Clear
Clear
 Wind from WNW
Wind: WNW 3 mph , 6 km/h
Temperature: 66°F , 19°C
Dew Point: 61°F , 16°C
Humidity: 83%
Barometer: 30 inHg , 1016 hPa
Summary: Clear
Visibility: greater than 7 miles , 10 km
2018/07/23 05:50 EGBB 230550Z 30003KT CAVOK 19/16 Q1016